sensor_id;sensor_type;location;lat;lon;timestamp;temperature;humidity
31038;DHT22;17702;47.590;7.666;2022-08-19T00:00:01;20.00;94.50
31038;DHT22;17702;47.590;7.666;2022-08-19T00:02:27;20.10;94.20
31038;DHT22;17702;47.590;7.666;2022-08-19T00:04:52;20.10;94.40
31038;DHT22;17702;47.590;7.666;2022-08-19T00:07:18;20.10;94.20
31038;DHT22;17702;47.590;7.666;2022-08-19T00:09:44;20.10;94.10
31038;DHT22;17702;47.590;7.666;2022-08-19T00:12:10;20.00;94.60
31038;DHT22;17702;47.590;7.666;2022-08-19T00:14:37;20.10;94.70
31038;DHT22;17702;47.590;7.666;2022-08-19T00:17:04;20.20;94.50
31038;DHT22;17702;47.590;7.666;2022-08-19T00:19:32;20.20;94.40
31038;DHT22;17702;47.590;7.666;2022-08-19T00:21:58;20.20;94.30
31038;DHT22;17702;47.590;7.666;2022-08-19T00:24:23;20.20;94.40
31038;DHT22;17702;47.590;7.666;2022-08-19T00:26:50;20.10;94.40
31038;DHT22;17702;47.590;7.666;2022-08-19T00:29:18;20.10;94.60
31038;DHT22;17702;47.590;7.666;2022-08-19T00:31:45;20.10;94.40
31038;DHT22;17702;47.590;7.666;2022-08-19T00:34:12;20.10;94.60
31038;DHT22;17702;47.590;7.666;2022-08-19T00:36:38;20.20;94.50
31038;DHT22;17702;47.590;7.666;2022-08-19T00:39:05;20.20;94.30
31038;DHT22;17702;47.590;7.666;2022-08-19T00:41:31;20.20;94.20
31038;DHT22;17702;47.590;7.666;2022-08-19T00:46:27;20.20;94.20
31038;DHT22;17702;47.590;7.666;2022-08-19T00:48:54;20.10;94.00
31038;DHT22;17702;47.590;7.666;2022-08-19T00:51:21;20.10;94.40
31038;DHT22;17702;47.590;7.666;2022-08-19T00:53:47;20.10;94.40
31038;DHT22;17702;47.590;7.666;2022-08-19T00:56:13;20.00;94.30
31038;DHT22;17702;47.590;7.666;2022-08-19T00:58:39;20.00;94.30
31038;DHT22;17702;47.590;7.666;2022-08-19T01:01:05;20.10;94.30
31038;DHT22;17702;47.590;7.666;2022-08-19T01:03:31;20.10;94.10
31038;DHT22;17702;47.590;7.666;2022-08-19T01:05:56;20.10;94.10
31038;DHT22;17702;47.590;7.666;2022-08-19T01:08:22;20.10;93.90
31038;DHT22;17702;47.590;7.666;2022-08-19T01:10:52;20.00;94.20
31038;DHT22;17702;47.590;7.666;2022-08-19T01:13:21;20.00;94.30
31038;DHT22;17702;47.590;7.666;2022-08-19T01:15:55;20.00;94.40
31038;DHT22;17702;47.590;7.666;2022-08-19T01:18:22;20.00;94.40
31038;DHT22;17702;47.590;7.666;2022-08-19T01:20:48;20.00;94.40
31038;DHT22;17702;47.590;7.666;2022-08-19T01:23:15;20.00;94.40
31038;DHT22;17702;47.590;7.666;2022-08-19T01:25:50;19.90;94.10
31038;DHT22;17702;47.590;7.666;2022-08-19T01:28:24;19.80;94.80
31038;DHT22;17702;47.590;7.666;2022-08-19T01:30:54;19.80;94.50
31038;DHT22;17702;47.590;7.666;2022-08-19T01:33:20;19.80;94.90
31038;DHT22;17702;47.590;7.666;2022-08-19T01:35:46;19.90;94.70
31038;DHT22;17702;47.590;7.666;2022-08-19T01:38:25;19.90;94.40
31038;DHT22;17702;47.590;7.666;2022-08-19T01:40:51;19.80;94.70
31038;DHT22;17702;47.590;7.666;2022-08-19T01:43:18;19.70;94.60
31038;DHT22;17702;47.590;7.666;2022-08-19T01:45:45;19.80;94.50
31038;DHT22;17702;47.590;7.666;2022-08-19T01:48:12;19.70;94.80
31038;DHT22;17702;47.590;7.666;2022-08-19T01:50:37;19.80;94.70
31038;DHT22;17702;47.590;7.666;2022-08-19T01:53:06;19.80;94.80
31038;DHT22;17702;47.590;7.666;2022-08-19T01:55:35;19.80;94.50
31038;DHT22;17702;47.590;7.666;2022-08-19T01:58:02;19.80;94.70
31038;DHT22;17702;47.590;7.666;2022-08-19T02:00:31;19.80;94.50
31038;DHT22;17702;47.590;7.666;2022-08-19T02:02:57;19.80;94.50
31038;DHT22;17702;47.590;7.666;2022-08-19T02:05:23;19.80;94.30
31038;DHT22;17702;47.590;7.666;2022-08-19T02:07:49;19.80;94.30
31038;DHT22;17702;47.590;7.666;2022-08-19T02:10:19;19.80;94.10
31038;DHT22;17702;47.590;7.666;2022-08-19T02:12:45;19.80;94.40
31038;DHT22;17702;47.590;7.666;2022-08-19T02:15:11;19.70;94.40
31038;DHT22;17702;47.590;7.666;2022-08-19T02:17:37;19.80;94.60
31038;DHT22;17702;47.590;7.666;2022-08-19T02:20:03;19.80;94.70
31038;DHT22;17702;47.590;7.666;2022-08-19T02:22:29;19.80;94.50
31038;DHT22;17702;47.590;7.666;2022-08-19T02:24:55;19.90;94.60
31038;DHT22;17702;47.590;7.666;2022-08-19T02:27:22;19.90;94.30
31038;DHT22;17702;47.590;7.666;2022-08-19T02:29:49;19.80;94.60
31038;DHT22;17702;47.590;7.666;2022-08-19T02:32:15;19.80;94.80
31038;DHT22;17702;47.590;7.666;2022-08-19T02:34:41;19.90;94.70
31038;DHT22;17702;47.590;7.666;2022-08-19T02:37:07;19.80;94.60
31038;DHT22;17702;47.590;7.666;2022-08-19T02:39:52;19.90;94.60
31038;DHT22;17702;47.590;7.666;2022-08-19T02:42:18;19.90;94.50
31038;DHT22;17702;47.590;7.666;2022-08-19T02:44:44;19.90;94.30
31038;DHT22;17702;47.590;7.666;2022-08-19T02:47:10;19.80;94.50
31038;DHT22;17702;47.590;7.666;2022-08-19T02:49:35;19.90;94.00
31038;DHT22;17702;47.590;7.666;2022-08-19T02:52:02;19.80;94.40
31038;DHT22;17702;47.590;7.666;2022-08-19T02:54:28;19.80;94.50
31038;DHT22;17702;47.590;7.666;2022-08-19T02:56:53;19.80;94.40
31038;DHT22;17702;47.590;7.666;2022-08-19T02:59:19;19.80;94.50
31038;DHT22;17702;47.590;7.666;2022-08-19T03:01:45;19.80;94.70
31038;DHT22;17702;47.590;7.666;2022-08-19T03:04:15;19.80;94.30
31038;DHT22;17702;47.590;7.666;2022-08-19T03:06:44;19.80;94.40
31038;DHT22;17702;47.590;7.666;2022-08-19T03:09:10;19.80;94.50
31038;DHT22;17702;47.590;7.666;2022-08-19T03:11:37;19.70;94.80
31038;DHT22;17702;47.590;7.666;2022-08-19T03:14:05;19.70;94.50
31038;DHT22;17702;47.590;7.666;2022-08-19T03:16:34;19.80;94.80
31038;DHT22;17702;47.590;7.666;2022-08-19T03:19:01;19.70;94.60
31038;DHT22;17702;47.590;7.666;2022-08-19T03:21:31;19.70;94.80
31038;DHT22;17702;47.590;7.666;2022-08-19T03:23:59;19.70;94.90
31038;DHT22;17702;47.590;7.666;2022-08-19T03:26:25;19.60;95.20
31038;DHT22;17702;47.590;7.666;2022-08-19T03:28:51;19.70;95.00
31038;DHT22;17702;47.590;7.666;2022-08-19T03:31:19;19.70;94.90
31038;DHT22;17702;47.590;7.666;2022-08-19T03:33:46;19.70;94.80
31038;DHT22;17702;47.590;7.666;2022-08-19T03:36:18;19.70;94.50
31038;DHT22;17702;47.590;7.666;2022-08-19T03:38:54;19.70;94.90
31038;DHT22;17702;47.590;7.666;2022-08-19T03:41:25;19.70;94.70
31038;DHT22;17702;47.590;7.666;2022-08-19T03:43:53;19.60;95.00
31038;DHT22;17702;47.590;7.666;2022-08-19T03:46:21;19.70;94.40
31038;DHT22;17702;47.590;7.666;2022-08-19T03:48:50;19.70;94.50
31038;DHT22;17702;47.590;7.666;2022-08-19T03:51:23;19.70;94.50
31038;DHT22;17702;47.590;7.666;2022-08-19T03:53:50;19.70;94.20
31038;DHT22;17702;47.590;7.666;2022-08-19T03:56:16;19.70;94.40
31038;DHT22;17702;47.590;7.666;2022-08-19T03:58:42;19.80;94.30
31038;DHT22;17702;47.590;7.666;2022-08-19T04:01:10;19.80;94.20
31038;DHT22;17702;47.590;7.666;2022-08-19T04:03:36;19.80;94.20
31038;DHT22;17702;47.590;7.666;2022-08-19T04:06:21;19.80;94.30
31038;DHT22;17702;47.590;7.666;2022-08-19T04:08:50;19.70;94.30
31038;DHT22;17702;47.590;7.666;2022-08-19T04:11:19;19.70;94.10
31038;DHT22;17702;47.590;7.666;2022-08-19T04:13:50;19.70;94.20
31038;DHT22;17702;47.590;7.666;2022-08-19T04:16:17;19.70;94.00
31038;DHT22;17702;47.590;7.666;2022-08-19T04:18:44;19.70;94.30
31038;DHT22;17702;47.590;7.666;2022-08-19T04:21:16;19.70;94.20
31038;DHT22;17702;47.590;7.666;2022-08-19T04:23:42;19.70;94.50
31038;DHT22;17702;47.590;7.666;2022-08-19T04:26:17;19.70;94.10
31038;DHT22;17702;47.590;7.666;2022-08-19T04:28:44;19.70;94.60
31038;DHT22;17702;47.590;7.666;2022-08-19T04:31:20;19.70;94.50
31038;DHT22;17702;47.590;7.666;2022-08-19T04:33:46;19.80;94.60
31038;DHT22;17702;47.590;7.666;2022-08-19T04:36:29;19.80;94.40
31038;DHT22;17702;47.590;7.666;2022-08-19T04:38:56;19.80;94.60
31038;DHT22;17702;47.590;7.666;2022-08-19T04:41:23;19.80;94.70
31038;DHT22;17702;47.590;7.666;2022-08-19T04:44:08;19.80;94.10
31038;DHT22;17702;47.590;7.666;2022-08-19T04:46:34;19.70;93.90
31038;DHT22;17702;47.590;7.666;2022-08-19T04:49:03;19.70;93.90
31038;DHT22;17702;47.590;7.666;2022-08-19T04:51:30;19.70;94.50
31038;DHT22;17702;47.590;7.666;2022-08-19T04:53:56;19.60;94.00
31038;DHT22;17702;47.590;7.666;2022-08-19T04:56:23;19.70;94.40
31038;DHT22;17702;47.590;7.666;2022-08-19T04:58:52;19.70;94.70
31038;DHT22;17702;47.590;7.666;2022-08-19T05:01:22;19.70;94.70
31038;DHT22;17702;47.590;7.666;2022-08-19T05:03:49;19.70;94.70
31038;DHT22;17702;47.590;7.666;2022-08-19T05:06:16;19.70;94.80
31038;DHT22;17702;47.590;7.666;2022-08-19T05:08:43;19.70;94.80
31038;DHT22;17702;47.590;7.666;2022-08-19T05:11:26;19.70;94.40
31038;DHT22;17702;47.590;7.666;2022-08-19T05:13:52;19.70;94.60
31038;DHT22;17702;47.590;7.666;2022-08-19T05:16:20;19.70;94.70
31038;DHT22;17702;47.590;7.666;2022-08-19T05:18:47;19.70;94.60
31038;DHT22;17702;47.590;7.666;2022-08-19T05:21:32;19.80;94.60
31038;DHT22;17702;47.590;7.666;2022-08-19T05:24:17;19.70;94.90
31038;DHT22;17702;47.590;7.666;2022-08-19T05:26:46;19.70;94.70
31038;DHT22;17702;47.590;7.666;2022-08-19T05:29:17;19.70;94.90
31038;DHT22;17702;47.590;7.666;2022-08-19T05:31:43;19.70;94.70
31038;DHT22;17702;47.590;7.666;2022-08-19T05:34:09;19.70;94.60
31038;DHT22;17702;47.590;7.666;2022-08-19T05:36:38;19.70;94.70
31038;DHT22;17702;47.590;7.666;2022-08-19T05:39:09;19.70;94.60
31038;DHT22;17702;47.590;7.666;2022-08-19T05:41:35;19.70;94.70
31038;DHT22;17702;47.590;7.666;2022-08-19T05:44:03;19.70;94.90
31038;DHT22;17702;47.590;7.666;2022-08-19T05:46:32;19.70;94.90
31038;DHT22;17702;47.590;7.666;2022-08-19T05:48:58;19.70;94.90
31038;DHT22;17702;47.590;7.666;2022-08-19T05:51:24;19.70;94.90
31038;DHT22;17702;47.590;7.666;2022-08-19T05:53:50;19.70;95.00
31038;DHT22;17702;47.590;7.666;2022-08-19T05:56:17;19.80;94.80
31038;DHT22;17702;47.590;7.666;2022-08-19T05:58:44;19.80;94.90
31038;DHT22;17702;47.590;7.666;2022-08-19T06:03:55;19.80;94.70
31038;DHT22;17702;47.590;7.666;2022-08-19T06:06:21;19.80;95.10
31038;DHT22;17702;47.590;7.666;2022-08-19T06:08:46;19.80;94.80
31038;DHT22;17702;47.590;7.666;2022-08-19T06:11:17;19.80;94.90
31038;DHT22;17702;47.590;7.666;2022-08-19T06:13:44;19.70;94.80
31038;DHT22;17702;47.590;7.666;2022-08-19T06:16:13;19.90;95.10
31038;DHT22;17702;47.590;7.666;2022-08-19T06:18:44;19.80;94.60
31038;DHT22;17702;47.590;7.666;2022-08-19T06:21:10;19.90;94.90
31038;DHT22;17702;47.590;7.666;2022-08-19T06:23:36;19.80;95.00
31038;DHT22;17702;47.590;7.666;2022-08-19T06:26:01;19.70;95.30
31038;DHT22;17702;47.590;7.666;2022-08-19T06:28:27;19.80;95.30
31038;DHT22;17702;47.590;7.666;2022-08-19T06:30:52;19.80;95.50
31038;DHT22;17702;47.590;7.666;2022-08-19T06:33:18;19.70;95.40
31038;DHT22;17702;47.590;7.666;2022-08-19T06:35:44;19.80;95.30
31038;DHT22;17702;47.590;7.666;2022-08-19T06:38:09;19.80;95.00
31038;DHT22;17702;47.590;7.666;2022-08-19T06:40:35;19.80;95.10
31038;DHT22;17702;47.590;7.666;2022-08-19T06:43:02;19.90;94.90
31038;DHT22;17702;47.590;7.666;2022-08-19T06:45:28;19.80;95.40
31038;DHT22;17702;47.590;7.666;2022-08-19T06:47:55;19.90;94.50
31038;DHT22;17702;47.590;7.666;2022-08-19T06:50:22;19.80;94.50
31038;DHT22;17702;47.590;7.666;2022-08-19T06:52:47;19.70;94.80
31038;DHT22;17702;47.590;7.666;2022-08-19T06:55:14;19.70;95.30
31038;DHT22;17702;47.590;7.666;2022-08-19T06:57:41;19.70;95.60
31038;DHT22;17702;47.590;7.666;2022-08-19T07:00:08;19.70;95.00
31038;DHT22;17702;47.590;7.666;2022-08-19T07:02:36;19.70;94.90
31038;DHT22;17702;47.590;7.666;2022-08-19T07:05:03;19.70;95.30
31038;DHT22;17702;47.590;7.666;2022-08-19T07:07:29;19.70;95.40
31038;DHT22;17702;47.590;7.666;2022-08-19T07:09:56;19.70;95.20
31038;DHT22;17702;47.590;7.666;2022-08-19T07:12:22;19.70;94.90
31038;DHT22;17702;47.590;7.666;2022-08-19T07:14:47;19.70;95.30
31038;DHT22;17702;47.590;7.666;2022-08-19T07:17:15;19.80;95.40
31038;DHT22;17702;47.590;7.666;2022-08-19T07:19:41;19.80;95.00
31038;DHT22;17702;47.590;7.666;2022-08-19T07:22:09;19.70;95.30
31038;DHT22;17702;47.590;7.666;2022-08-19T07:24:35;19.70;95.30
31038;DHT22;17702;47.590;7.666;2022-08-19T07:27:03;19.80;95.70
31038;DHT22;17702;47.590;7.666;2022-08-19T07:29:32;19.90;95.00
31038;DHT22;17702;47.590;7.666;2022-08-19T07:31:59;19.90;95.30
31038;DHT22;17702;47.590;7.666;2022-08-19T07:34:26;19.90;95.40
31038;DHT22;17702;47.590;7.666;2022-08-19T07:36:53;19.90;95.50
31038;DHT22;17702;47.590;7.666;2022-08-19T07:39:28;19.90;95.40
31038;DHT22;17702;47.590;7.666;2022-08-19T07:41:55;19.80;95.80
31038;DHT22;17702;47.590;7.666;2022-08-19T07:44:21;19.80;95.50
31038;DHT22;17702;47.590;7.666;2022-08-19T07:46:51;19.90;95.30
31038;DHT22;17702;47.590;7.666;2022-08-19T07:49:18;19.90;95.30
31038;DHT22;17702;47.590;7.666;2022-08-19T07:51:53;19.90;95.40
31038;DHT22;17702;47.590;7.666;2022-08-19T07:54:20;19.90;95.40
31038;DHT22;17702;47.590;7.666;2022-08-19T07:56:46;19.90;95.40
31038;DHT22;17702;47.590;7.666;2022-08-19T07:59:12;19.90;95.50
31038;DHT22;17702;47.590;7.666;2022-08-19T08:01:38;20.00;95.70
31038;DHT22;17702;47.590;7.666;2022-08-19T08:04:06;20.00;95.60
31038;DHT22;17702;47.590;7.666;2022-08-19T08:06:51;20.10;95.60
31038;DHT22;17702;47.590;7.666;2022-08-19T08:09:39;20.10;95.60
31038;DHT22;17702;47.590;7.666;2022-08-19T08:12:13;20.20;95.50
31038;DHT22;17702;47.590;7.666;2022-08-19T08:17:09;20.10;95.60
31038;DHT22;17702;47.590;7.666;2022-08-19T08:19:36;20.10;95.80
31038;DHT22;17702;47.590;7.666;2022-08-19T08:22:02;20.00;95.90
31038;DHT22;17702;47.590;7.666;2022-08-19T08:24:30;20.10;96.20
31038;DHT22;17702;47.590;7.666;2022-08-19T08:27:00;20.00;96.10
31038;DHT22;17702;47.590;7.666;2022-08-19T08:29:28;20.00;96.20
31038;DHT22;17702;47.590;7.666;2022-08-19T08:31:54;20.10;96.20
31038;DHT22;17702;47.590;7.666;2022-08-19T08:34:20;20.10;96.30
31038;DHT22;17702;47.590;7.666;2022-08-19T08:36:47;20.10;96.30
31038;DHT22;17702;47.590;7.666;2022-08-19T08:39:15;20.10;95.90
31038;DHT22;17702;47.590;7.666;2022-08-19T08:41:56;20.10;95.90
31038;DHT22;17702;47.590;7.666;2022-08-19T08:44:39;20.10;95.30
31038;DHT22;17702;47.590;7.666;2022-08-19T08:47:12;20.20;95.70
31038;DHT22;17702;47.590;7.666;2022-08-19T08:49:48;20.20;96.10
31038;DHT22;17702;47.590;7.666;2022-08-19T08:52:28;20.20;95.90
31038;DHT22;17702;47.590;7.666;2022-08-19T08:54:59;20.30;96.10
31038;DHT22;17702;47.590;7.666;2022-08-19T08:57:33;20.20;96.00
31038;DHT22;17702;47.590;7.666;2022-08-19T09:00:05;20.20;95.90
31038;DHT22;17702;47.590;7.666;2022-08-19T09:02:32;20.20;95.80
31038;DHT22;17702;47.590;7.666;2022-08-19T09:04:57;20.20;96.00
31038;DHT22;17702;47.590;7.666;2022-08-19T09:07:44;20.20;95.90
31038;DHT22;17702;47.590;7.666;2022-08-19T09:15:57;20.40;96.40
31038;DHT22;17702;47.590;7.666;2022-08-19T09:18:23;20.50;96.10
31038;DHT22;17702;47.590;7.666;2022-08-19T09:20:49;20.50;96.10
31038;DHT22;17702;47.590;7.666;2022-08-19T09:23:15;20.50;96.00
31038;DHT22;17702;47.590;7.666;2022-08-19T09:25:41;20.60;95.80
31038;DHT22;17702;47.590;7.666;2022-08-19T09:28:07;20.60;95.50
31038;DHT22;17702;47.590;7.666;2022-08-19T09:30:39;20.60;95.80
31038;DHT22;17702;47.590;7.666;2022-08-19T09:33:06;20.60;95.90
31038;DHT22;17702;47.590;7.666;2022-08-19T09:35:32;20.70;96.10
31038;DHT22;17702;47.590;7.666;2022-08-19T09:37:59;20.70;96.30
31038;DHT22;17702;47.590;7.666;2022-08-19T09:40:29;20.70;95.00
31038;DHT22;17702;47.590;7.666;2022-08-19T09:42:55;20.70;94.90
31038;DHT22;17702;47.590;7.666;2022-08-19T09:45:22;20.70;95.10
31038;DHT22;17702;47.590;7.666;2022-08-19T09:47:52;20.70;95.60
31038;DHT22;17702;47.590;7.666;2022-08-19T09:50:18;20.70;95.60
31038;DHT22;17702;47.590;7.666;2022-08-19T09:52:45;20.70;95.20
31038;DHT22;17702;47.590;7.666;2022-08-19T09:55:11;20.70;94.90
31038;DHT22;17702;47.590;7.666;2022-08-19T09:57:37;20.70;95.00
31038;DHT22;17702;47.590;7.666;2022-08-19T10:00:06;20.70;95.20
31038;DHT22;17702;47.590;7.666;2022-08-19T10:02:33;20.80;95.00
31038;DHT22;17702;47.590;7.666;2022-08-19T10:04:58;20.80;94.70
31038;DHT22;17702;47.590;7.666;2022-08-19T10:07:42;20.80;94.70
31038;DHT22;17702;47.590;7.666;2022-08-19T10:10:08;20.80;94.50
31038;DHT22;17702;47.590;7.666;2022-08-19T10:12:35;20.80;94.40
31038;DHT22;17702;47.590;7.666;2022-08-19T10:15:00;20.80;94.30
31038;DHT22;17702;47.590;7.666;2022-08-19T10:17:27;20.80;94.70
31038;DHT22;17702;47.590;7.666;2022-08-19T10:19:52;20.80;94.10
31038;DHT22;17702;47.590;7.666;2022-08-19T10:22:19;20.80;93.90
31038;DHT22;17702;47.590;7.666;2022-08-19T10:24:47;20.70;94.20
31038;DHT22;17702;47.590;7.666;2022-08-19T10:27:13;20.70;94.80
31038;DHT22;17702;47.590;7.666;2022-08-19T10:29:40;20.70;94.60
31038;DHT22;17702;47.590;7.666;2022-08-19T10:32:07;20.70;94.00
31038;DHT22;17702;47.590;7.666;2022-08-19T10:34:35;20.70;93.90
31038;DHT22;17702;47.590;7.666;2022-08-19T10:37:02;20.70;93.50
31038;DHT22;17702;47.590;7.666;2022-08-19T10:39:32;20.70;93.90
31038;DHT22;17702;47.590;7.666;2022-08-19T10:41:58;20.70;93.80
31038;DHT22;17702;47.590;7.666;2022-08-19T10:44:25;20.70;94.20
31038;DHT22;17702;47.590;7.666;2022-08-19T10:46:51;20.70;94.30
31038;DHT22;17702;47.590;7.666;2022-08-19T10:49:17;20.70;94.00
31038;DHT22;17702;47.590;7.666;2022-08-19T10:51:44;20.70;93.80
31038;DHT22;17702;47.590;7.666;2022-08-19T10:54:29;20.70;93.10
31038;DHT22;17702;47.590;7.666;2022-08-19T10:57:14;20.70;93.20
31038;DHT22;17702;47.590;7.666;2022-08-19T10:59:40;20.80;93.80
31038;DHT22;17702;47.590;7.666;2022-08-19T11:02:08;20.80;93.00
31038;DHT22;17702;47.590;7.666;2022-08-19T11:04:38;20.90;93.00
31038;DHT22;17702;47.590;7.666;2022-08-19T11:07:05;20.90;93.00
31038;DHT22;17702;47.590;7.666;2022-08-19T11:09:37;20.90;93.20
31038;DHT22;17702;47.590;7.666;2022-08-19T11:12:04;20.90;93.50
31038;DHT22;17702;47.590;7.666;2022-08-19T11:14:30;21.00;93.60
31038;DHT22;17702;47.590;7.666;2022-08-19T11:16:58;21.00;93.50
31038;DHT22;17702;47.590;7.666;2022-08-19T11:19:23;21.10;92.80
31038;DHT22;17702;47.590;7.666;2022-08-19T11:21:51;21.10;92.90
31038;DHT22;17702;47.590;7.666;2022-08-19T11:24:20;21.10;93.20
31038;DHT22;17702;47.590;7.666;2022-08-19T11:26:47;21.20;93.20
31038;DHT22;17702;47.590;7.666;2022-08-19T11:29:15;21.20;93.40
31038;DHT22;17702;47.590;7.666;2022-08-19T11:31:44;21.20;93.50
31038;DHT22;17702;47.590;7.666;2022-08-19T11:34:12;21.20;92.80
31038;DHT22;17702;47.590;7.666;2022-08-19T11:36:41;21.10;93.20
31038;DHT22;17702;47.590;7.666;2022-08-19T11:39:10;21.10;93.50
31038;DHT22;17702;47.590;7.666;2022-08-19T11:41:35;21.10;93.30
31038;DHT22;17702;47.590;7.666;2022-08-19T11:44:03;21.00;94.00
31038;DHT22;17702;47.590;7.666;2022-08-19T11:46:30;21.00;94.10
31038;DHT22;17702;47.590;7.666;2022-08-19T11:48:57;20.90;94.50
31038;DHT22;17702;47.590;7.666;2022-08-19T11:51:25;20.90;95.00
31038;DHT22;17702;47.590;7.666;2022-08-19T11:53:52;20.90;95.00
31038;DHT22;17702;47.590;7.666;2022-08-19T11:56:20;20.90;95.00
31038;DHT22;17702;47.590;7.666;2022-08-19T11:58:46;20.90;95.30
31038;DHT22;17702;47.590;7.666;2022-08-19T12:01:13;20.90;95.70
31038;DHT22;17702;47.590;7.666;2022-08-19T12:03:44;20.90;95.90
31038;DHT22;17702;47.590;7.666;2022-08-19T12:06:22;21.00;95.60
31038;DHT22;17702;47.590;7.666;2022-08-19T12:08:51;21.10;95.90
31038;DHT22;17702;47.590;7.666;2022-08-19T12:11:17;21.10;95.90
31038;DHT22;17702;47.590;7.666;2022-08-19T12:13:43;21.10;95.70
31038;DHT22;17702;47.590;7.666;2022-08-19T12:16:19;21.20;95.30
31038;DHT22;17702;47.590;7.666;2022-08-19T12:18:46;21.20;95.30
31038;DHT22;17702;47.590;7.666;2022-08-19T12:21:13;21.20;95.40
31038;DHT22;17702;47.590;7.666;2022-08-19T12:23:41;21.20;95.70
31038;DHT22;17702;47.590;7.666;2022-08-19T12:26:08;21.20;95.90
31038;DHT22;17702;47.590;7.666;2022-08-19T12:28:33;21.20;95.90
31038;DHT22;17702;47.590;7.666;2022-08-19T12:30:59;21.20;96.00
31038;DHT22;17702;47.590;7.666;2022-08-19T12:33:25;21.20;95.50
31038;DHT22;17702;47.590;7.666;2022-08-19T12:35:53;21.20;95.30
31038;DHT22;17702;47.590;7.666;2022-08-19T12:38:19;21.10;95.50
31038;DHT22;17702;47.590;7.666;2022-08-19T12:40:48;21.10;95.60
31038;DHT22;17702;47.590;7.666;2022-08-19T12:43:15;21.10;95.70
31038;DHT22;17702;47.590;7.666;2022-08-19T12:45:42;21.00;95.80
31038;DHT22;17702;47.590;7.666;2022-08-19T12:48:08;21.00;96.00
31038;DHT22;17702;47.590;7.666;2022-08-19T12:50:34;21.00;95.90
31038;DHT22;17702;47.590;7.666;2022-08-19T12:52:59;21.00;95.60
31038;DHT22;17702;47.590;7.666;2022-08-19T12:55:25;21.00;95.50
31038;DHT22;17702;47.590;7.666;2022-08-19T12:57:53;21.00;95.60
31038;DHT22;17702;47.590;7.666;2022-08-19T13:00:21;21.00;95.50
31038;DHT22;17702;47.590;7.666;2022-08-19T13:02:49;20.90;95.40
31038;DHT22;17702;47.590;7.666;2022-08-19T13:05:27;20.90;95.40
31038;DHT22;17702;47.590;7.666;2022-08-19T13:07:54;20.90;95.50
31038;DHT22;17702;47.590;7.666;2022-08-19T13:10:23;20.90;95.80
31038;DHT22;17702;47.590;7.666;2022-08-19T13:12:50;20.80;95.10
31038;DHT22;17702;47.590;7.666;2022-08-19T13:15:18;20.80;94.70
31038;DHT22;17702;47.590;7.666;2022-08-19T13:17:50;20.70;95.10
31038;DHT22;17702;47.590;7.666;2022-08-19T13:20:18;20.60;95.20
31038;DHT22;17702;47.590;7.666;2022-08-19T13:22:45;20.50;95.30
31038;DHT22;17702;47.590;7.666;2022-08-19T13:25:12;20.40;95.40
31038;DHT22;17702;47.590;7.666;2022-08-19T13:27:38;20.40;95.90
31038;DHT22;17702;47.590;7.666;2022-08-19T13:30:06;20.50;95.90
31038;DHT22;17702;47.590;7.666;2022-08-19T13:32:50;20.50;95.80
31038;DHT22;17702;47.590;7.666;2022-08-19T13:35:34;20.50;95.60
31038;DHT22;17702;47.590;7.666;2022-08-19T13:38:00;20.50;95.70
31038;DHT22;17702;47.590;7.666;2022-08-19T13:40:31;20.60;95.80
31038;DHT22;17702;47.590;7.666;2022-08-19T13:43:00;20.60;95.90
31038;DHT22;17702;47.590;7.666;2022-08-19T13:45:27;20.60;96.40
31038;DHT22;17702;47.590;7.666;2022-08-19T13:47:55;20.60;96.40
31038;DHT22;17702;47.590;7.666;2022-08-19T13:50:24;20.70;96.30
31038;DHT22;17702;47.590;7.666;2022-08-19T13:52:51;20.70;96.30
31038;DHT22;17702;47.590;7.666;2022-08-19T13:55:17;20.70;95.90
31038;DHT22;17702;47.590;7.666;2022-08-19T13:57:43;20.70;95.80
31038;DHT22;17702;47.590;7.666;2022-08-19T14:00:14;20.70;96.00
31038;DHT22;17702;47.590;7.666;2022-08-19T14:02:41;20.70;95.70
31038;DHT22;17702;47.590;7.666;2022-08-19T14:05:09;20.80;95.40
31038;DHT22;17702;47.590;7.666;2022-08-19T14:07:35;20.80;95.50
31038;DHT22;17702;47.590;7.666;2022-08-19T14:10:02;20.80;95.20
31038;DHT22;17702;47.590;7.666;2022-08-19T14:12:28;20.80;95.70
31038;DHT22;17702;47.590;7.666;2022-08-19T14:14:54;20.90;96.10
31038;DHT22;17702;47.590;7.666;2022-08-19T14:17:20;20.90;96.30
31038;DHT22;17702;47.590;7.666;2022-08-19T14:19:46;21.00;96.50
31038;DHT22;17702;47.590;7.666;2022-08-19T14:22:12;21.00;95.40
31038;DHT22;17702;47.590;7.666;2022-08-19T14:24:38;21.10;95.60
31038;DHT22;17702;47.590;7.666;2022-08-19T14:27:07;21.10;95.90
31038;DHT22;17702;47.590;7.666;2022-08-19T14:29:33;21.10;96.20
31038;DHT22;17702;47.590;7.666;2022-08-19T14:31:59;21.20;96.10
31038;DHT22;17702;47.590;7.666;2022-08-19T14:34:26;21.20;96.50
31038;DHT22;17702;47.590;7.666;2022-08-19T14:36:52;21.30;95.90
31038;DHT22;17702;47.590;7.666;2022-08-19T14:39:18;21.30;95.10
31038;DHT22;17702;47.590;7.666;2022-08-19T14:41:44;21.40;94.40
31038;DHT22;17702;47.590;7.666;2022-08-19T14:44:11;21.50;94.80
31038;DHT22;17702;47.590;7.666;2022-08-19T14:46:38;21.50;94.90
31038;DHT22;17702;47.590;7.666;2022-08-19T14:49:04;21.50;94.60
31038;DHT22;17702;47.590;7.666;2022-08-19T14:51:29;21.50;94.90
31038;DHT22;17702;47.590;7.666;2022-08-19T14:53:55;21.40;94.20
31038;DHT22;17702;47.590;7.666;2022-08-19T14:56:24;21.50;94.50
31038;DHT22;17702;47.590;7.666;2022-08-19T14:58:50;21.50;94.60
31038;DHT22;17702;47.590;7.666;2022-08-19T15:01:17;21.40;94.10
31038;DHT22;17702;47.590;7.666;2022-08-19T15:03:45;21.40;94.20
31038;DHT22;17702;47.590;7.666;2022-08-19T15:06:11;21.40;94.30
31038;DHT22;17702;47.590;7.666;2022-08-19T15:08:37;21.40;94.40
31038;DHT22;17702;47.590;7.666;2022-08-19T15:11:08;21.40;94.80
31038;DHT22;17702;47.590;7.666;2022-08-19T15:13:35;21.40;94.70
31038;DHT22;17702;47.590;7.666;2022-08-19T15:16:01;21.40;95.00
31038;DHT22;17702;47.590;7.666;2022-08-19T15:18:26;21.40;95.30
31038;DHT22;17702;47.590;7.666;2022-08-19T15:20:52;21.40;94.00
31038;DHT22;17702;47.590;7.666;2022-08-19T15:23:19;21.30;94.40
31038;DHT22;17702;47.590;7.666;2022-08-19T15:25:45;21.30;94.30
31038;DHT22;17702;47.590;7.666;2022-08-19T15:28:11;21.30;94.90
31038;DHT22;17702;47.590;7.666;2022-08-19T15:30:38;21.30;95.00
31038;DHT22;17702;47.590;7.666;2022-08-19T15:33:05;21.30;94.40
31038;DHT22;17702;47.590;7.666;2022-08-19T15:35:31;21.30;94.70
31038;DHT22;17702;47.590;7.666;2022-08-19T15:37:56;21.40;95.10
31038;DHT22;17702;47.590;7.666;2022-08-19T15:40:24;21.30;95.10
31038;DHT22;17702;47.590;7.666;2022-08-19T15:42:50;21.30;95.40
31038;DHT22;17702;47.590;7.666;2022-08-19T15:45:19;21.30;94.80
31038;DHT22;17702;47.590;7.666;2022-08-19T15:47:45;21.30;95.10